Petersburg, Iowa
Current Conditions -  °F | °C
As of 4:15 AM on Friday 31 Oct 2014 (Local Time) from KMXO Reporting Station
Clear Clear  
Wind Chill: 22°   Ceiling: Unl
Heat Index: 34°   Visibility: 10mi
Dew Point: 19°   Wind: 23mph
Humidity: 56%   Direction: 340°NNW
Pressure: 30.24"   Gusts: NA
Location:  42.495°N, 91.1159°W
Report Text: KMXO 310915Z AUTO 34020KT 10SM CLR 01/M07 A3024 RMK AO2
Loading
Personal Weather Stations






























Interactive Weather Map
Tropical Storm Tracking
New forecast layout! Learn more

10-Day Weather Forecast

Advertisements
Track Severe Weather on mobile